Ellendale, Delaware
Current Conditions -  °F | °C
As of 10:54 AM on Saturday 22 Nov 2014 (Local Time) from KGED Reporting Station
Clear Clear  
Wind Chill: 35°   Ceiling: Unl
Heat Index: 42°   Visibility: 10mi
Dew Point: 19°   Wind: 15mph
Humidity: 40%   Direction: 220°SW
Pressure: 30.52"   Gusts: NA
Location:  38.81°N, 75.42°W
Report Text: KGED 221554Z AUTO 22013KT 10SM CLR 06/M07 A3052 RMK AO2 SLP334 T00561072
Loading
Personal Weather Stations






























Interactive Weather Map New forecast layout! Learn more

10-Day Weather Forecast

Advertisements
Track Severe Weather on mobile